Time;durP1;ratioP1;P1;durP2;ratioP2;P2;SDS_P1;SDS_P2;PMS_P1;PMS_P2;Temp;Humidity;BMP_temperature;BMP_pressure;BME280_temperature;BME280_humidity;BME280_pressure;Samples;Min_cycle;Max_cycle;Signal;HPM_P1;HPM_P2
2022/09/14 00:02:25;;;;;;;5.38;2.70;;;12.80;99.90;;;;;;5082642;28;20084;-70
2022/09/14 00:04:51;;;;;;;5.47;2.50;;;12.70;99.90;;;;;;5083580;28;20081;-71
2022/09/14 00:07:16;;;;;;;9.77;2.97;;;12.90;99.90;;;;;;5085301;28;20036;-72
2022/09/14 00:09:42;;;;;;;6.60;3.08;;;12.80;99.90;;;;;;5086069;28;20050;-72
2022/09/14 00:12:09;;;;;;;7.78;3.00;;;12.90;99.90;;;;;;5084904;28;20039;-71
2022/09/14 00:14:35;;;;;;;5.93;2.88;;;12.80;99.90;;;;;;5088483;28;20121;-71
2022/09/14 00:17:00;;;;;;;9.65;3.15;;;12.80;99.90;;;;;;5087375;28;20075;-70
2022/09/14 00:19:26;;;;;;;4.55;2.50;;;12.90;99.90;;;;;;5086937;28;20064;-71
2022/09/14 00:21:57;;;;;;;5.13;2.85;;;13.00;99.90;;;;;;5086440;28;20046;-71
2022/09/14 00:24:24;;;;;;;6.80;2.78;;;13.00;99.90;;;;;;5090428;28;20478;-71
2022/09/14 00:26:50;;;;;;;6.43;2.53;;;13.10;99.90;;;;;;5083629;28;20040;-71
2022/09/14 00:29:16;;;;;;;5.95;3.05;;;13.00;99.90;;;;;;5088326;28;20051;-72
2022/09/14 00:31:42;;;;;;;5.72;2.70;;;13.10;99.90;;;;;;5087046;28;20082;-72
2022/09/14 00:34:12;;;;;;;6.20;2.80;;;13.00;99.90;;;;;;5096017;28;20049;-72
2022/09/14 00:36:41;;;;;;;5.47;2.88;;;13.10;99.90;;;;;;5090939;28;20099;-71
2022/09/14 00:39:07;;;;;;;6.65;2.75;;;12.90;99.90;;;;;;5088470;28;20140;-72
2022/09/14 00:41:35;;;;;;;5.60;3.10;;;12.90;99.90;;;;;;5089666;28;20036;-71
2022/09/14 00:44:03;;;;;;;3.58;2.70;;;12.90;99.90;;;;;;5092184;28;20112;-71
2022/09/14 00:46:34;;;;;;;7.07;2.92;;;13.00;99.90;;;;;;5076136;28;20565;-72
2022/09/14 00:49:03;;;;;;;5.43;2.70;;;12.90;99.90;;;;;;5090775;28;20048;-71
2022/09/14 00:51:31;;;;;;;4.07;2.50;;;12.90;99.90;;;;;;5086685;28;20069;-72
2022/09/14 00:53:59;;;;;;;4.85;2.50;;;12.90;99.90;;;;;;5100082;28;20046;-72
2022/09/14 00:56:25;;;;;;;4.75;2.50;;;12.90;99.90;;;;;;5098702;28;20639;-71
2022/09/14 00:58:51;;;;;;;8.75;2.88;;;12.90;99.90;;;;;;5098479;28;20044;-71
2022/09/14 01:01:17;;;;;;;6.90;2.97;;;12.90;99.90;;;;;;5093852;28;20047;-71
2022/09/14 01:03:43;;;;;;;4.68;2.65;;;12.80;99.90;;;;;;5096648;28;20028;-71
2022/09/14 01:06:32;;;;;;;5.75;2.78;;;12.80;99.90;;;;;;5099933;28;20040;-71
2022/09/14 01:09:27;;;;;;;4.07;2.60;;;12.70;99.90;;;;;;5080541;28;20112;-71
2022/09/14 01:11:52;;;;;;;5.55;2.90;;;12.70;99.90;;;;;;5092269;28;20040;-70
2022/09/14 01:14:41;;;;;;;7.22;2.90;;;12.70;99.90;;;;;;5085996;28;20050;-69
2022/09/14 01:17:30;;;;;;;6.88;2.65;;;12.70;99.90;;;;;;5084299;28;20055;-70
2022/09/14 01:20:12;;;;;;;7.00;2.97;;;12.70;99.90;;;;;;5082111;28;20047;-70
2022/09/14 01:23:04;;;;;;;4.72;3.10;;;12.70;99.90;;;;;;5081533;28;20039;-71
2022/09/14 01:25:39;;;;;;;4.15;2.72;;;12.60;99.90;;;;;;5082210;28;20040;-69
2022/09/14 01:28:11;;;;;;;6.00;3.20;;;12.60;99.90;;;;;;5084186;28;20052;-71
2022/09/14 01:30:40;;;;;;;5.43;2.60;;;12.60;99.90;;;;;;5079165;28;20184;-69
2022/09/14 01:33:17;;;;;;;4.25;2.75;;;12.60;99.90;;;;;;5078834;28;20044;-72
2022/09/14 01:35:49;;;;;;;4.97;3.05;;;12.50;99.90;;;;;;5083516;28;20055;-71
2022/09/14 01:38:25;;;;;;;6.85;2.70;;;12.50;99.90;;;;;;5094630;28;20082;-70
2022/09/14 01:40:52;;;;;;;4.50;2.83;;;12.50;99.90;;;;;;5095930;28;20100;-71
2022/09/14 01:43:30;;;;;;;4.82;3.03;;;12.50;99.90;;;;;;5094210;28;20070;-72
2022/09/14 01:46:05;;;;;;;3.60;2.58;;;12.50;99.90;;;;;;5092889;28;20036;-71
2022/09/14 01:48:41;;;;;;;4.82;2.85;;;12.50;99.90;;;;;;5094390;28;20055;-71
2022/09/14 01:51:14;;;;;;;4.32;2.45;;;12.30;99.90;;;;;;5097427;28;20036;-71
2022/09/14 01:53:54;;;;;;;6.55;2.90;;;12.30;99.90;;;;;;5094372;28;20051;-71
2022/09/14 01:56:31;;;;;;;6.47;2.50;;;12.30;99.90;;;;;;5102750;28;20081;-72
2022/09/14 01:59:08;;;;;;;4.03;2.25;;;12.30;99.90;;;;;;5098020;28;20108;-71
2022/09/14 02:01:38;;;;;;;5.15;2.60;;;12.20;99.90;;;;;;5097507;28;20055;-72
2022/09/14 02:04:08;;;;;;;8.35;3.08;;;12.20;99.90;;;;;;5099683;28;20782;-71
2022/09/14 02:06:35;;;;;;;4.20;2.75;;;12.20;99.90;;;;;;5097802;28;20089;-70
2022/09/14 02:09:02;;;;;;;3.92;3.03;;;12.20;99.90;;;;;;5093595;28;20055;-70
2022/09/14 02:11:28;;;;;;;5.60;3.10;;;12.20;99.90;;;;;;5089487;28;20036;-71
2022/09/14 02:13:54;;;;;;;8.60;2.40;;;12.20;99.90;;;;;;5077796;28;20147;-71
2022/09/14 02:16:21;;;;;;;4.53;2.95;;;12.20;99.90;;;;;;5088703;28;20052;-71
2022/09/14 02:18:47;;;;;;;7.80;3.25;;;12.20;99.90;;;;;;5090938;28;20040;-70
2022/09/14 02:21:20;;;;;;;6.68;3.22;;;12.20;99.90;;;;;;5087283;28;20744;-70
2022/09/14 02:23:47;;;;;;;5.95;3.15;;;12.20;99.90;;;;;;5093759;28;20028;-72
2022/09/14 02:26:15;;;;;;;4.40;3.13;;;12.20;99.90;;;;;;5107298;28;20051;-72
2022/09/14 02:28:40;;;;;;;4.38;2.97;;;12.20;99.90;;;;;;5106682;28;20066;-73
2022/09/14 02:31:18;;;;;;;8.15;3.10;;;12.20;99.90;;;;;;5095259;28;20044;-72
2022/09/14 02:33:49;;;;;;;;;;;12.20;99.90;;;;;;5091914;28;20125;-72
2022/09/14 02:36:35;;;;;;;9.02;3.28;;;12.20;99.90;;;;;;5092475;28;19924;-72
2022/09/14 02:39:08;;;;;;;7.47;3.10;;;12.20;99.90;;;;;;5091541;28;20048;-73
2022/09/14 02:41:59;;;;;;;5.60;3.45;;;12.30;99.90;;;;;;5095192;28;20028;-73
2022/09/14 02:44:39;;;;;;;7.97;3.60;;;12.30;99.90;;;;;;5105469;28;20047;-72
2022/09/14 02:47:14;;;;;;;5.55;3.30;;;12.30;99.90;;;;;;5101318;28;20036;-72
2022/09/14 02:50:03;;;;;;;5.30;3.72;;;12.30;99.90;;;;;;5099318;28;20040;-73
2022/09/14 02:52:55;;;;;;;6.63;3.58;;;12.30;99.90;;;;;;5026422;28;20033;-71
2022/09/14 02:55:25;;;;;;;5.63;3.58;;;12.30;99.90;;;;;;4992334;28;20232;-71
2022/09/14 02:58:03;;;;;;;5.13;3.72;;;12.30;99.90;;;;;;5007837;28;20125;-74
2022/09/14 03:00:30;;;;;;;6.43;3.78;;;12.30;99.90;;;;;;5006294;28;20096;-74
2022/09/14 03:02:57;;;;;;;7.07;3.30;;;12.40;99.90;;;;;;5010299;28;20115;-74
2022/09/14 03:05:22;;;;;;;6.28;3.70;;;12.30;99.90;;;;;;5000809;28;20070;-74
2022/09/14 03:07:48;;;;;;;7.00;3.72;;;12.30;99.90;;;;;;5000023;28;20477;-74
2022/09/14 03:10:14;;;;;;;4.45;3.53;;;12.30;99.90;;;;;;5027315;28;20134;-74
2022/09/14 03:12:39;;;;;;;7.63;3.90;;;12.40;99.90;;;;;;5023854;28;20029;-75
2022/09/14 03:15:06;;;;;;;6.88;3.80;;;12.40;99.90;;;;;;5025586;28;20046;-74
2022/09/14 03:17:31;;;;;;;6.90;3.58;;;12.30;99.90;;;;;;5013290;28;20058;-74
2022/09/14 03:19:57;;;;;;;4.65;3.83;;;12.30;99.90;;;;;;5011135;28;20038;-74
2022/09/14 03:22:22;;;;;;;6.22;3.90;;;12.30;99.90;;;;;;5024553;28;20050;-74
2022/09/14 03:24:48;;;;;;;4.78;4.20;;;12.40;99.90;;;;;;5017149;28;20044;-74
2022/09/14 03:27:13;;;;;;;6.75;4.32;;;12.40;99.90;;;;;;4998269;28;20533;-74
2022/09/14 03:29:39;;;;;;;6.30;3.42;;;12.40;99.90;;;;;;5043715;28;20052;-73
2022/09/14 03:32:05;;;;;;;4.97;3.92;;;12.30;99.90;;;;;;5080143;28;20074;-73
2022/09/14 03:34:30;;;;;;;4.90;3.97;;;12.40;99.90;;;;;;5070027;28;20039;-73
2022/09/14 03:36:56;;;;;;;6.72;4.35;;;12.40;99.90;;;;;;5083626;28;20032;-74
2022/09/14 03:39:21;;;;;;;4.95;4.10;;;12.30;99.90;;;;;;5084096;28;20036;-73
2022/09/14 03:41:47;;;;;;;8.13;3.85;;;12.40;99.90;;;;;;5080827;28;20449;-73
2022/09/14 03:44:13;;;;;;;6.93;4.30;;;12.30;99.90;;;;;;5081559;28;20093;-73
2022/09/14 03:46:38;;;;;;;6.63;4.80;;;12.40;99.90;;;;;;5083851;28;20056;-72
2022/09/14 03:49:04;;;;;;;4.60;4.07;;;12.40;99.90;;;;;;5082657;28;20052;-71
2022/09/14 03:51:32;;;;;;;6.05;4.00;;;12.30;99.90;;;;;;5086598;28;20467;-71
2022/09/14 03:53:57;;;;;;;7.47;4.47;;;12.30;99.90;;;;;;5093679;28;20139;-71
2022/09/14 03:56:23;;;;;;;6.85;4.88;;;12.30;99.90;;;;;;5089659;28;20059;-72
2022/09/14 03:58:49;;;;;;;5.72;4.30;;;12.30;99.90;;;;;;5090831;28;20040;-72
2022/09/14 04:01:20;;;;;;;5.10;4.60;;;12.30;99.90;;;;;;5087203;28;20037;-72
2022/09/14 04:03:47;;;;;;;5.28;4.00;;;12.30;99.90;;;;;;5087998;28;20044;-72
2022/09/14 04:06:14;;;;;;;7.38;4.70;;;12.30;99.90;;;;;;5091645;28;20096;-71
2022/09/14 04:08:41;;;;;;;5.07;4.20;;;12.30;99.90;;;;;;5094908;28;20043;-72
2022/09/14 04:11:10;;;;;;;6.85;4.35;;;12.20;99.90;;;;;;5090466;28;20055;-73
2022/09/14 04:13:36;;;;;;;9.63;4.43;;;12.20;99.90;;;;;;5084841;28;20054;-71
2022/09/14 04:16:03;;;;;;;5.97;4.28;;;12.30;99.90;;;;;;5081247;28;20123;-71
2022/09/14 04:18:28;;;;;;;6.20;5.30;;;12.30;99.90;;;;;;5082953;28;20032;-71
2022/09/14 04:21:02;;;;;;;7.75;5.05;;;12.30;99.90;;;;;;5084570;28;20059;-72
2022/09/14 04:23:27;;;;;;;7.13;5.38;;;12.20;99.90;;;;;;5082802;28;20431;-71
2022/09/14 04:25:53;;;;;;;5.45;4.70;;;12.20;99.90;;;;;;5072329;28;20139;-71
2022/09/14 04:28:20;;;;;;;5.50;4.05;;;12.20;99.90;;;;;;5096468;28;20055;-73
2022/09/14 04:31:00;;;;;;;5.00;4.00;;;12.20;99.90;;;;;;5104422;28;20047;-73
2022/09/14 04:33:29;;;;;;;5.40;4.90;;;12.20;99.90;;;;;;5094220;28;21193;-73
2022/09/14 04:36:00;;;;;;;5.10;3.72;;;12.20;99.90;;;;;;5103403;28;20068;-73
2022/09/14 04:38:27;;;;;;;6.65;4.50;;;12.20;99.90;;;;;;5104433;28;20052;-73
2022/09/14 04:40:53;;;;;;;7.95;4.22;;;12.20;99.90;;;;;;5098588;28;20088;-72
2022/09/14 04:43:18;;;;;;;5.47;4.97;;;12.20;99.90;;;;;;5102554;28;20052;-72
2022/09/14 04:45:44;;;;;;;8.93;4.90;;;12.20;99.90;;;;;;5086924;28;20040;-73
2022/09/14 04:48:10;;;;;;;7.65;5.03;;;12.20;99.90;;;;;;5091737;28;20064;-73
2022/09/14 04:50:36;;;;;;;9.60;6.00;;;12.20;99.90;;;;;;5107729;28;20035;-73
2022/09/14 04:53:02;;;;;;;8.13;5.50;;;12.20;99.90;;;;;;5108083;28;20071;-73
2022/09/14 04:55:28;;;;;;;7.63;5.03;;;12.20;99.90;;;;;;5106804;28;20040;-73
2022/09/14 04:57:53;;;;;;;5.60;4.20;;;12.20;99.90;;;;;;5102917;28;20048;-73
2022/09/14 05:00:19;;;;;;;6.28;4.55;;;12.20;99.90;;;;;;5104107;28;20036;-73
2022/09/14 05:02:45;;;;;;;5.85;4.70;;;12.20;99.90;;;;;;5073655;28;20105;-73
2022/09/14 05:05:11;;;;;;;9.20;4.97;;;12.20;99.90;;;;;;5098964;28;20036;-74
2022/09/14 05:07:37;;;;;;;6.53;4.47;;;12.30;99.90;;;;;;5086782;28;20040;-73
2022/09/14 05:10:03;;;;;;;6.95;4.60;;;12.20;99.90;;;;;;5101580;28;20754;-73
2022/09/14 05:12:29;;;;;;;7.53;5.30;;;12.30;99.90;;;;;;5093769;28;20058;-73
2022/09/14 05:14:54;;;;;;;9.25;5.30;;;12.30;99.90;;;;;;5099873;28;20041;-73
2022/09/14 05:17:20;;;;;;;6.50;4.97;;;12.30;99.90;;;;;;5101306;28;20042;-73
2022/09/14 05:19:46;;;;;;;7.15;5.35;;;12.30;99.90;;;;;;5093684;28;20046;-71
2022/09/14 05:22:12;;;;;;;7.78;5.13;;;12.30;99.90;;;;;;5084415;28;20083;-73
2022/09/14 05:24:37;;;;;;;7.60;5.40;;;12.40;99.90;;;;;;5087535;28;20148;-71
2022/09/14 05:27:03;;;;;;;10.32;5.60;;;12.40;99.90;;;;;;5081917;28;20482;-70
2022/09/14 05:29:30;;;;;;;8.45;5.28;;;12.40;99.90;;;;;;5083459;28;20032;-70
2022/09/14 05:31:56;;;;;;;8.15;5.80;;;12.50;99.90;;;;;;5080015;28;20040;-70
2022/09/14 05:34:22;;;;;;;7.55;5.53;;;12.50;99.90;;;;;;5081271;28;20612;-70
2022/09/14 05:36:47;;;;;;;7.30;5.78;;;12.50;99.90;;;;;;5086808;28;20032;-73
2022/09/14 05:39:13;;;;;;;6.90;5.13;;;12.50;99.90;;;;;;5091323;28;20047;-73
2022/09/14 05:41:38;;;;;;;12.35;5.40;;;12.60;99.90;;;;;;5094847;28;20079;-73
2022/09/14 05:44:05;;;;;;;5.82;5.22;;;12.60;99.90;;;;;;5096719;28;20076;-73
2022/09/14 05:46:31;;;;;;;7.63;5.97;;;12.60;99.90;;;;;;5090845;28;20044;-73
2022/09/14 05:48:56;;;;;;;8.30;5.50;;;12.70;99.90;;;;;;5089810;28;20055;-72
2022/09/14 05:51:24;;;;;;;6.20;5.00;;;12.70;99.90;;;;;;5075723;28;20049;-73
2022/09/14 05:53:51;;;;;;;6.63;5.32;;;12.80;99.90;;;;;;5094127;28;20062;-75
2022/09/14 05:56:18;;;;;;;5.70;5.15;;;12.80;99.90;;;;;;5099609;28;20067;-73
2022/09/14 05:58:44;;;;;;;8.82;5.15;;;12.90;99.90;;;;;;5088445;28;20074;-71
2022/09/14 06:01:20;;;;;;;9.85;5.50;;;12.90;99.90;;;;;;5083818;28;20071;-70
2022/09/14 06:03:47;;;;;;;7.40;5.00;;;13.00;99.90;;;;;;5082285;28;20036;-70
2022/09/14 06:06:15;;;;;;;10.38;5.32;;;13.00;99.90;;;;;;5086183;28;20047;-69
2022/09/14 06:08:41;;;;;;;6.38;5.30;;;13.10;99.90;;;;;;5084742;28;20062;-73
2022/09/14 06:11:13;;;;;;;6.05;5.47;;;13.10;99.90;;;;;;5087599;28;20410;-73
2022/09/14 06:13:39;;;;;;;9.10;4.93;;;13.10;99.90;;;;;;5083455;28;20085;-71
2022/09/14 06:16:08;;;;;;;8.85;5.88;;;13.20;99.90;;;;;;5082917;28;20445;-70
2022/09/14 06:18:35;;;;;;;7.75;5.05;;;13.20;99.90;;;;;;5082635;28;20535;-70
2022/09/14 06:21:02;;;;;;;8.43;5.70;;;13.30;99.90;;;;;;5084565;28;20136;-71
2022/09/14 06:23:28;;;;;;;9.50;5.95;;;13.30;99.90;;;;;;5083577;28;20040;-72
2022/09/14 06:25:55;;;;;;;7.57;5.68;;;13.30;99.90;;;;;;5097016;28;20052;-73
2022/09/14 06:28:22;;;;;;;9.63;6.23;;;13.40;99.90;;;;;;5096733;28;20502;-73
2022/09/14 06:30:48;;;;;;;9.25;5.95;;;13.40;99.90;;;;;;5085593;28;20043;-72
2022/09/14 06:33:14;;;;;;;9.40;6.00;;;13.50;99.90;;;;;;5082363;28;20037;-71
2022/09/14 06:35:41;;;;;;;7.45;5.75;;;13.50;99.90;;;;;;5086237;28;21447;-71
2022/09/14 06:38:07;;;;;;;14.52;6.70;;;13.60;99.90;;;;;;5085281;28;20044;-71
2022/09/14 06:40:33;;;;;;;10.13;6.57;;;13.60;99.90;;;;;;5085299;28;20035;-71
2022/09/14 06:43:01;;;;;;;10.90;6.65;;;13.70;99.90;;;;;;5085830;28;20051;-71
2022/09/14 06:45:31;;;;;;;9.95;6.53;;;13.70;99.90;;;;;;5069815;28;20631;-72
2022/09/14 06:47:57;;;;;;;10.52;6.50;;;13.80;99.90;;;;;;5078843;28;20039;-71
2022/09/14 06:50:23;;;;;;;8.90;5.78;;;13.90;99.90;;;;;;5068592;28;20093;-70
2022/09/14 06:52:49;;;;;;;14.82;6.90;;;14.10;99.90;;;;;;5066590;28;20039;-71
2022/09/14 06:55:15;;;;;;;10.57;6.65;;;14.10;99.90;;;;;;5084225;28;20040;-72
2022/09/14 06:57:40;;;;;;;9.68;6.38;;;14.20;99.90;;;;;;5078833;28;20119;-71
2022/09/14 07:00:07;;;;;;;10.00;6.80;;;14.20;99.90;;;;;;5079461;28;20511;-71
2022/09/14 07:02:33;;;;;;;12.68;7.22;;;14.30;99.90;;;;;;5084929;28;20105;-73
2022/09/14 07:04:58;;;;;;;12.32;6.63;;;14.40;99.90;;;;;;5064639;28;20788;-71
2022/09/14 07:07:24;;;;;;;12.73;6.50;;;14.50;99.90;;;;;;5068041;28;20040;-70
2022/09/14 07:09:50;;;;;;;11.20;6.38;;;14.50;99.90;;;;;;5083784;28;20402;-70
2022/09/14 07:12:15;;;;;;;11.00;6.13;;;14.60;99.90;;;;;;5082540;28;20036;-70
2022/09/14 07:14:41;;;;;;;8.20;5.38;;;14.70;99.90;;;;;;5082106;28;20044;-70
2022/09/14 07:17:06;;;;;;;10.23;5.72;;;14.80;99.90;;;;;;5081522;28;20368;-71
2022/09/14 07:19:32;;;;;;;13.55;5.28;;;14.90;99.90;;;;;;5080804;28;20069;-70
2022/09/14 07:21:57;;;;;;;7.18;4.18;;;15.00;99.90;;;;;;5091260;28;20109;-73
2022/09/14 07:24:23;;;;;;;7.32;4.38;;;15.00;99.90;;;;;;5094071;28;20463;-69
2022/09/14 07:26:48;;;;;;;9.23;4.78;;;15.10;99.90;;;;;;5081169;28;20795;-73
2022/09/14 07:29:17;;;;;;;9.10;5.50;;;15.20;99.90;;;;;;5083461;28;20165;-73
2022/09/14 07:31:44;;;;;;;12.38;5.18;;;15.40;99.90;;;;;;5079157;28;20032;-73
2022/09/14 07:34:11;;;;;;;7.50;5.00;;;15.50;99.90;;;;;;5086075;28;20090;-72
2022/09/14 07:36:38;;;;;;;10.00;5.30;;;15.70;99.90;;;;;;5084373;28;20660;-71
2022/09/14 07:39:05;;;;;;;7.57;4.82;;;15.80;99.90;;;;;;5083942;28;20517;-72
2022/09/14 07:41:33;;;;;;;10.20;4.93;;;16.00;99.90;;;;;;5086688;28;20040;-71
2022/09/14 07:44:00;;;;;;;7.75;4.85;;;16.20;99.90;;;;;;5083869;28;20040;-71
2022/09/14 07:46:27;;;;;;;11.43;4.93;;;16.40;99.90;;;;;;5086347;28;20055;-71
2022/09/14 07:48:57;;;;;;;13.48;4.68;;;16.60;99.90;;;;;;5080657;28;20048;-71
2022/09/14 07:51:24;;;;;;;12.35;5.00;;;16.80;99.90;;;;;;5080254;28;20036;-70
2022/09/14 07:53:50;;;;;;;9.27;4.65;;;17.00;99.90;;;;;;5084251;28;20039;-72
2022/09/14 07:56:16;;;;;;;10.27;5.53;;;17.20;99.90;;;;;;5082883;28;20453;-69
2022/09/14 07:58:42;;;;;;;8.05;4.78;;;17.40;99.90;;;;;;5082240;28;20141;-69
2022/09/14 08:01:10;;;;;;;8.20;4.47;;;17.50;99.90;;;;;;5083185;28;20043;-69
2022/09/14 08:03:42;;;;;;;6.68;4.28;;;17.50;99.90;;;;;;5066414;28;20040;-69
2022/09/14 08:06:10;;;;;;;8.45;4.00;;;17.70;99.90;;;;;;5084753;28;20036;-71
2022/09/14 08:08:39;;;;;;;6.97;4.43;;;17.70;99.90;;;;;;5067795;28;20047;-71
2022/09/14 08:11:07;;;;;;;6.03;4.10;;;17.90;99.90;;;;;;5078146;28;20090;-69
2022/09/14 08:13:34;;;;;;;9.63;4.07;;;18.10;99.90;;;;;;5082581;28;20123;-69
2022/09/14 08:16:01;;;;;;;5.47;2.63;;;18.40;99.90;;;;;;5084399;28;20043;-71
2022/09/14 08:18:28;;;;;;;6.63;2.88;;;18.60;99.90;;;;;;5089974;28;20094;-70
2022/09/14 08:20:53;;;;;;;5.03;2.35;;;18.70;99.90;;;;;;5070950;28;20040;-70
2022/09/14 08:23:19;;;;;;;7.53;2.22;;;18.80;99.90;;;;;;5088174;28;20119;-70
2022/09/14 08:25:45;;;;;;;6.13;2.60;;;18.80;99.90;;;;;;5087595;28;20040;-70
2022/09/14 08:28:11;;;;;;;6.95;2.83;;;;;;;;;;5084910;28;20048;-70
2022/09/14 08:30:37;;;;;;;8.07;3.03;;;19.20;99.90;;;;;;5091374;28;20420;-69
2022/09/14 08:33:03;;;;;;;8.00;2.63;;;19.30;99.90;;;;;;5089868;28;20059;-69
2022/09/14 08:35:28;;;;;;;6.53;2.50;;;19.30;99.90;;;;;;5069710;28;20044;-70
2022/09/14 08:37:54;;;;;;;8.52;2.55;;;19.30;99.90;;;;;;5087144;28;20040;-68
2022/09/14 08:40:20;;;;;;;6.40;2.13;;;19.30;99.90;;;;;;5088766;28;20040;-69
2022/09/14 08:42:47;;;;;;;7.03;3.17;;;19.30;99.90;;;;;;5088116;28;20048;-69
2022/09/14 08:45:15;;;;;;;4.83;3.30;;;19.30;99.90;;;;;;5080425;28;20056;-68
2022/09/14 08:47:42;;;;;;;8.07;3.50;;;19.30;99.90;;;;;;5088504;28;20316;-68
2022/09/14 08:50:17;;;;;;;11.55;3.95;;;19.20;99.90;;;;;;5078890;28;20044;-68
2022/09/14 08:52:48;;;;;;;8.02;3.50;;;19.20;99.90;;;;;;5081388;28;20036;-68
2022/09/14 08:55:16;;;;;;;7.32;3.38;;;19.20;99.90;;;;;;5084663;28;20040;-68
2022/09/14 08:57:59;;;;;;;9.95;3.60;;;19.20;99.90;;;;;;5078751;28;20278;-70
2022/09/14 09:00:38;;;;;;;6.65;3.22;;;19.20;99.90;;;;;;5082961;28;20048;-69
2022/09/14 09:03:06;;;;;;;7.78;3.15;;;19.20;99.90;;;;;;5065538;28;20060;-68
2022/09/14 09:06:01;;;;;;;12.20;3.13;;;19.30;99.90;;;;;;5083421;28;20085;-68
2022/09/14 09:08:46;;;;;;;6.78;3.05;;;19.40;99.90;;;;;;5076195;28;20075;-71
2022/09/14 09:11:17;;;;;;;6.95;2.70;;;19.50;99.90;;;;;;5078479;28;20465;-68
2022/09/14 09:13:44;;;;;;;5.32;3.20;;;19.30;99.90;;;;;;5067978;28;20049;-69
2022/09/14 09:16:11;;;;;;;7.70;3.10;;;19.50;99.90;;;;;;5083894;28;20097;-69
2022/09/14 09:18:57;;;;;;;7.03;3.22;;;19.60;99.90;;;;;;5095096;28;20081;-69
2022/09/14 09:21:29;;;;;;;7.65;3.33;;;19.90;99.90;;;;;;5090969;28;20044;-69
2022/09/14 09:24:20;;;;;;;8.52;3.42;;;19.90;99.90;;;;;;5094000;28;20048;-70
2022/09/14 09:26:46;;;;;;;8.65;3.70;;;20.00;99.90;;;;;;5090062;28;20067;-69
2022/09/14 09:29:12;;;;;;;6.20;3.60;;;19.80;99.90;;;;;;5087676;28;20510;-69
2022/09/14 09:31:43;;;;;;;9.75;3.55;;;19.80;99.90;;;;;;5072866;28;20379;-69
2022/09/14 09:34:12;;;;;;;6.22;3.30;;;19.70;99.90;;;;;;5089702;28;20032;-69
2022/09/14 09:36:40;;;;;;;3.95;1.27;;;19.50;99.90;;;;;;5089503;28;20531;-69
2022/09/14 09:39:06;;;;;;;5.00;1.17;;;19.50;99.90;;;;;;5090596;28;20437;-70
2022/09/14 09:41:57;;;;;;;5.32;1.10;;;19.50;99.90;;;;;;5086296;28;20044;-71
2022/09/14 09:44:23;;;;;;;3.25;1.00;;;19.60;99.90;;;;;;5088310;28;20048;-70
2022/09/14 09:47:00;;;;;;;3.70;1.30;;;19.50;99.90;;;;;;5089285;28;20078;-71
2022/09/14 09:49:29;;;;;;;4.20;1.08;;;19.60;99.90;;;;;;5081843;28;20045;-70
2022/09/14 09:52:04;;;;;;;4.90;0.95;;;19.60;99.90;;;;;;5067179;28;20071;-70
2022/09/14 09:54:32;;;;;;;5.35;0.90;;;19.60;99.90;;;;;;5086156;28;20052;-70
2022/09/14 09:57:03;;;;;;;2.08;0.93;;;19.50;99.90;;;;;;5089270;28;20119;-70
2022/09/14 09:59:41;;;;;;;2.60;1.20;;;19.60;99.90;;;;;;5094912;28;20093;-70
2022/09/14 10:02:33;;;;;;;3.35;0.90;;;19.70;99.90;;;;;;5093697;28;20040;-70
2022/09/14 10:05:17;;;;;;;2.88;0.77;;;19.50;99.90;;;;;;5081298;28;20052;-70
2022/09/14 10:07:56;;;;;;;2.20;0.70;;;19.50;99.90;;;;;;5094154;28;20553;-70
2022/09/14 10:10:41;;;;;;;3.30;0.70;;;19.40;99.90;;;;;;5094853;28;20145;-70
2022/09/14 10:13:34;;;;;;;4.38;0.85;;;19.30;99.90;;;;;;5073817;28;20097;-70
2022/09/14 10:16:16;;;;;;;4.35;0.73;;;19.40;99.90;;;;;;5094473;28;20043;-70
2022/09/14 10:18:52;;;;;;;2.95;0.80;;;19.30;99.90;;;;;;5071481;28;20073;-70
2022/09/14 10:21:21;;;;;;;4.13;0.85;;;19.20;99.90;;;;;;5085551;28;20235;-71
2022/09/14 10:24:16;;;;;;;4.63;0.98;;;19.40;99.90;;;;;;5094308;28;20048;-70
2022/09/14 10:26:41;;;;;;;11.73;2.60;;;19.50;99.90;;;;;;5093168;28;20045;-69
2022/09/14 10:29:27;;;;;;;5.30;2.10;;;19.60;99.90;;;;;;5093490;28;20036;-68
2022/09/14 10:31:59;;;;;;;6.80;2.03;;;19.60;99.90;;;;;;5087329;28;20039;-68
2022/09/14 10:34:25;;;;;;;5.10;2.05;;;19.70;99.90;;;;;;5093301;28;20115;-69
2022/09/14 10:37:08;;;;;;;9.25;2.40;;;19.80;99.90;;;;;;5091675;28;20118;-69
2022/09/14 10:40:18;;;;;;;5.40;1.90;;;19.80;99.90;;;;;;5090105;28;20040;-69
2022/09/14 10:43:10;;;;;;;7.07;2.08;;;19.80;99.90;;;;;;5076796;28;20569;-69
2022/09/14 10:45:51;;;;;;;5.25;1.40;;;19.80;99.90;;;;;;5071006;28;20113;-69
2022/09/14 10:48:31;;;;;;;6.07;1.85;;;19.80;99.90;;;;;;5089952;28;20044;-68
2022/09/14 10:51:23;;;;;;;5.13;1.52;;;19.90;99.90;;;;;;5088346;28;20109;-69
2022/09/14 10:54:30;;;;;;;4.38;1.77;;;20.00;99.90;;;;;;5092840;28;20067;-68
2022/09/14 10:57:35;;;;;;;3.88;1.40;;;20.00;99.90;;;;;;4984777;28;20070;-69
2022/09/14 11:00:17;;;;;;;7.57;1.60;;;20.00;99.90;;;;;;4982928;28;20506;-69
2022/09/14 11:03:19;;;;;;;4.82;1.40;;;20.10;99.90;;;;;;4986507;28;20169;-69
2022/09/14 11:06:00;;;;;;;1.70;0.60;;;20.00;99.90;;;;;;4989973;28;20077;-69
2022/09/14 11:08:35;;;;;;;2.53;0.63;;;19.90;99.90;;;;;;4989700;28;20070;-68
2022/09/14 11:11:28;;;;;;;3.13;0.68;;;19.90;99.90;;;;;;4989266;28;20121;-69
2022/09/14 11:14:22;;;;;;;3.38;0.90;;;20.10;99.90;;;;;;4987704;28;20050;-69
2022/09/14 11:16:59;;;;;;;3.75;0.63;;;20.10;99.90;;;;;;4984001;28;20046;-69
2022/09/14 11:19:46;;;;;;;;;;;19.90;99.90;;;;;;4991643;28;20150;-69
2022/09/14 11:22:23;;;;;;;3.78;0.82;;;20.00;99.90;;;;;;4984171;28;19926;-68
2022/09/14 11:24:58;;;;;;;2.35;1.05;;;20.00;99.90;;;;;;4977522;28;20121;-69
2022/09/14 11:27:49;;;;;;;4.78;1.02;;;19.90;99.90;;;;;;5023647;28;20067;-68
2022/09/14 11:30:21;;;;;;;3.40;0.73;;;20.30;99.90;;;;;;5078121;28;20048;-70
2022/09/14 11:33:10;;;;;;;2.15;0.65;;;20.50;99.90;;;;;;5080723;28;20032;-69
2022/09/14 11:35:47;;;;;;;2.33;0.50;;;20.80;99.90;;;;;;5086907;28;20047;-71
2022/09/14 11:38:20;;;;;;;2.35;0.80;;;20.80;99.90;;;;;;5074780;28;20051;-70
2022/09/14 11:41:04;;;;;;;2.90;0.73;;;21.00;99.90;;;;;;5073068;28;20076;-70
2022/09/14 11:43:41;;;;;;;5.05;1.20;;;21.10;99.90;;;;;;5080338;28;20058;-70
2022/09/14 11:46:11;;;;;;;2.15;0.63;;;21.30;99.90;;;;;;5091979;28;20078;-70
2022/09/14 11:48:43;;;;;;;1.80;0.70;;;21.50;99.90;;;;;;5092414;28;20043;-70
2022/09/14 11:51:12;;;;;;;2.45;0.70;;;21.70;99.90;;;;;;5092672;28;20036;-70
2022/09/14 11:53:40;;;;;;;1.40;0.60;;;21.40;99.90;;;;;;5094464;28;20036;-70
2022/09/14 11:56:25;;;;;;;3.88;0.90;;;21.50;99.90;;;;;;5097085;28;20044;-70
2022/09/14 11:58:53;;;;;;;2.28;0.50;;;21.60;99.90;;;;;;5095884;28;20066;-69
2022/09/14 12:01:36;;;;;;;1.75;0.52;;;21.40;99.90;;;;;;5096373;28;20044;-70
2022/09/14 12:04:11;;;;;;;2.70;0.75;;;21.40;99.90;;;;;;5078495;28;20057;-70
2022/09/14 12:06:37;;;;;;;3.08;0.60;;;21.40;99.90;;;;;;5069752;28;20444;-70
2022/09/14 12:09:30;;;;;;;4.70;0.93;;;21.00;99.90;;;;;;5096812;28;20052;-70
2022/09/14 12:11:57;;;;;;;2.33;0.68;;;20.90;99.90;;;;;;5089704;28;20119;-69
2022/09/14 12:14:22;;;;;;;2.47;0.70;;;21.10;99.90;;;;;;5087046;28;20402;-68
2022/09/14 12:17:23;;;;;;;3.33;0.65;;;20.80;99.90;;;;;;5091072;28;20043;-71
2022/09/14 12:19:52;;;;;;;2.35;0.70;;;20.70;99.90;;;;;;5090645;28;20036;-69
2022/09/14 12:22:36;;;;;;;1.85;0.50;;;20.90;99.90;;;;;;5086056;28;20089;-69
2022/09/14 12:25:07;;;;;;;2.33;0.70;;;21.10;99.90;;;;;;5072045;28;20047;-68
2022/09/14 12:27:36;;;;;;;1.83;0.63;;;21.40;99.90;;;;;;5087376;28;20045;-68
2022/09/14 12:30:40;;;;;;;4.38;1.63;;;21.70;99.90;;;;;;5090703;28;20040;-71
2022/09/14 12:33:30;;;;;;;3.70;0.90;;;22.00;99.90;;;;;;5077221;28;20454;-70
2022/09/14 12:35:57;;;;;;;2.15;0.80;;;22.10;99.90;;;;;;5091550;28;20657;-70
2022/09/14 12:38:29;;;;;;;3.33;0.77;;;22.30;99.90;;;;;;5090137;28;20051;-70
2022/09/14 12:41:17;;;;;;;3.03;0.68;;;22.60;99.90;;;;;;5092965;28;20127;-70
2022/09/14 12:43:49;;;;;;;4.43;1.02;;;22.60;99.90;;;;;;5044574;28;20044;-70
2022/09/14 12:46:21;;;;;;;3.20;0.80;;;22.60;99.90;;;;;;5085898;28;20111;-69
2022/09/14 12:51:28;;;;;;;4.00;0.82;;;23.10;99.90;;;;;;5093256;28;20055;-69
2022/09/14 12:53:56;;;;;;;3.55;1.20;;;23.00;99.90;;;;;;5095590;28;20177;-70
2022/09/14 12:56:34;;;;;;;4.18;0.80;;;22.60;99.90;;;;;;5076048;28;20441;-69
2022/09/14 12:59:02;;;;;;;4.88;0.98;;;22.50;99.90;;;;;;5092030;28;20063;-70
2022/09/14 13:02:10;;;;;;;4.07;0.80;;;22.40;99.90;;;;;;5094186;28;20048;-69
2022/09/14 13:04:37;;;;;;;3.05;1.00;;;22.10;99.90;;;;;;4993408;28;20067;-69
2022/09/14 13:07:06;;;;;;;3.92;0.90;;;22.20;99.90;;;;;;4993630;28;20411;-70
2022/09/14 13:09:32;;;;;;;8.73;1.25;;;22.20;99.90;;;;;;4989159;28;20042;-69
2022/09/14 13:12:03;;;;;;;5.47;0.90;;;22.20;99.90;;;;;;4990037;28;20201;-69
2022/09/14 13:14:33;;;;;;;4.03;0.90;;;22.50;99.90;;;;;;4992881;28;20049;-69